sensor_id;sensor_type;location;lat;lon;timestamp;P1;durP1;ratioP1;P2;durP2;ratioP2
81901;SDS011;71369;50.796;3.290;2023-10-31T00:01:40;15.35;;;8.48;;
81901;SDS011;71369;50.796;3.290;2023-10-31T00:04:06;15.05;;;9.55;;
81901;SDS011;71369;50.796;3.290;2023-10-31T00:06:32;11.40;;;7.75;;
81901;SDS011;71369;50.796;3.290;2023-10-31T00:08:57;13.10;;;9.27;;
81901;SDS011;71369;50.796;3.290;2023-10-31T00:11:23;11.85;;;8.32;;
81901;SDS011;71369;50.796;3.290;2023-10-31T00:13:49;12.10;;;8.38;;
81901;SDS011;71369;50.796;3.290;2023-10-31T00:16:15;13.70;;;8.00;;
81901;SDS011;71369;50.796;3.290;2023-10-31T00:18:40;13.18;;;8.20;;
81901;SDS011;71369;50.796;3.290;2023-10-31T00:21:06;13.23;;;8.07;;
81901;SDS011;71369;50.796;3.290;2023-10-31T00:23:32;12.95;;;7.75;;
81901;SDS011;71369;50.796;3.290;2023-10-31T00:25:57;15.35;;;8.20;;
81901;SDS011;71369;50.796;3.290;2023-10-31T00:28:23;12.77;;;7.85;;
81901;SDS011;71369;50.796;3.290;2023-10-31T00:30:49;12.73;;;7.70;;
81901;SDS011;71369;50.796;3.290;2023-10-31T00:33:14;12.20;;;7.32;;
81901;SDS011;71369;50.796;3.290;2023-10-31T00:35:40;10.98;;;7.05;;
81901;SDS011;71369;50.796;3.290;2023-10-31T00:38:06;10.98;;;6.55;;
81901;SDS011;71369;50.796;3.290;2023-10-31T00:40:31;14.30;;;7.07;;
81901;SDS011;71369;50.796;3.290;2023-10-31T00:42:57;12.25;;;5.88;;
81901;SDS011;71369;50.796;3.290;2023-10-31T00:45:24;7.90;;;4.90;;
81901;SDS011;71369;50.796;3.290;2023-10-31T00:47:49;8.13;;;4.90;;
81901;SDS011;71369;50.796;3.290;2023-10-31T00:50:15;8.50;;;5.70;;
81901;SDS011;71369;50.796;3.290;2023-10-31T00:52:41;9.68;;;5.20;;
81901;SDS011;71369;50.796;3.290;2023-10-31T00:55:07;6.82;;;4.93;;
81901;SDS011;71369;50.796;3.290;2023-10-31T00:57:32;8.90;;;5.35;;
81901;SDS011;71369;50.796;3.290;2023-10-31T00:59:58;8.63;;;5.40;;
81901;SDS011;71369;50.796;3.290;2023-10-31T01:02:24;6.35;;;4.38;;
81901;SDS011;71369;50.796;3.290;2023-10-31T01:04:49;8.23;;;4.25;;
81901;SDS011;71369;50.796;3.290;2023-10-31T01:07:15;10.43;;;4.07;;
81901;SDS011;71369;50.796;3.290;2023-10-31T01:09:42;8.60;;;4.00;;
81901;SDS011;71369;50.796;3.290;2023-10-31T01:12:09;7.90;;;3.72;;
81901;SDS011;71369;50.796;3.290;2023-10-31T01:14:36;6.28;;;3.50;;
81901;SDS011;71369;50.796;3.290;2023-10-31T01:17:02;4.45;;;3.03;;
81901;SDS011;71369;50.796;3.290;2023-10-31T01:19:27;4.80;;;3.17;;
81901;SDS011;71369;50.796;3.290;2023-10-31T01:21:53;3.97;;;2.53;;
81901;SDS011;71369;50.796;3.290;2023-10-31T01:24:19;4.65;;;2.53;;
81901;SDS011;71369;50.796;3.290;2023-10-31T01:26:44;4.07;;;2.50;;
81901;SDS011;71369;50.796;3.290;2023-10-31T01:29:10;3.50;;;2.40;;
81901;SDS011;71369;50.796;3.290;2023-10-31T01:31:36;3.75;;;2.15;;
81901;SDS011;71369;50.796;3.290;2023-10-31T01:34:02;3.42;;;1.98;;
81901;SDS011;71369;50.796;3.290;2023-10-31T01:36:28;3.42;;;1.80;;
81901;SDS011;71369;50.796;3.290;2023-10-31T01:38:54;3.83;;;2.15;;
81901;SDS011;71369;50.796;3.290;2023-10-31T01:41:19;4.35;;;2.25;;
81901;SDS011;71369;50.796;3.290;2023-10-31T01:43:45;3.40;;;1.80;;
81901;SDS011;71369;50.796;3.290;2023-10-31T01:46:11;3.65;;;2.15;;
81901;SDS011;71369;50.796;3.290;2023-10-31T01:48:36;3.33;;;2.40;;
81901;SDS011;71369;50.796;3.290;2023-10-31T01:51:03;4.28;;;2.58;;
81901;SDS011;71369;50.796;3.290;2023-10-31T01:53:30;4.60;;;2.28;;
81901;SDS011;71369;50.796;3.290;2023-10-31T01:55:58;4.40;;;2.47;;
81901;SDS011;71369;50.796;3.290;2023-10-31T01:58:30;7.57;;;2.67;;
81901;SDS011;71369;50.796;3.290;2023-10-31T02:00:59;5.72;;;2.67;;
81901;SDS011;71369;50.796;3.290;2023-10-31T02:03:26;9.13;;;3.03;;
81901;SDS011;71369;50.796;3.290;2023-10-31T02:05:55;5.25;;;2.65;;
81901;SDS011;71369;50.796;3.290;2023-10-31T02:08:22;5.60;;;3.00;;
81901;SDS011;71369;50.796;3.290;2023-10-31T02:10:47;6.10;;;2.78;;
81901;SDS011;71369;50.796;3.290;2023-10-31T02:13:17;5.68;;;2.63;;
81901;SDS011;71369;50.796;3.290;2023-10-31T02:15:43;6.72;;;3.80;;
81901;SDS011;71369;50.796;3.290;2023-10-31T02:18:10;5.30;;;3.65;;
81901;SDS011;71369;50.796;3.290;2023-10-31T02:20:36;6.93;;;4.18;;
81901;SDS011;71369;50.796;3.290;2023-10-31T02:23:02;7.05;;;3.53;;
81901;SDS011;71369;50.796;3.290;2023-10-31T02:25:28;5.88;;;3.97;;
81901;SDS011;71369;50.796;3.290;2023-10-31T02:27:54;6.60;;;4.03;;
81901;SDS011;71369;50.796;3.290;2023-10-31T02:30:21;8.43;;;4.40;;
81901;SDS011;71369;50.796;3.290;2023-10-31T02:32:47;5.90;;;4.00;;
81901;SDS011;71369;50.796;3.290;2023-10-31T02:35:15;7.25;;;4.22;;
81901;SDS011;71369;50.796;3.290;2023-10-31T02:37:41;8.45;;;4.32;;
81901;SDS011;71369;50.796;3.290;2023-10-31T02:40:07;7.30;;;4.47;;
81901;SDS011;71369;50.796;3.290;2023-10-31T02:42:33;6.25;;;3.85;;
81901;SDS011;71369;50.796;3.290;2023-10-31T02:44:59;7.88;;;4.53;;
81901;SDS011;71369;50.796;3.290;2023-10-31T02:47:25;8.55;;;4.18;;
81901;SDS011;71369;50.796;3.290;2023-10-31T02:49:50;8.48;;;4.50;;
81901;SDS011;71369;50.796;3.290;2023-10-31T02:52:16;7.00;;;4.30;;
81901;SDS011;71369;50.796;3.290;2023-10-31T02:54:42;9.00;;;4.70;;
81901;SDS011;71369;50.796;3.290;2023-10-31T02:57:07;7.57;;;4.25;;
81901;SDS011;71369;50.796;3.290;2023-10-31T02:59:33;8.15;;;5.10;;
81901;SDS011;71369;50.796;3.290;2023-10-31T03:01:59;8.18;;;5.18;;
81901;SDS011;71369;50.796;3.290;2023-10-31T03:04:25;8.10;;;5.05;;
81901;SDS011;71369;50.796;3.290;2023-10-31T03:06:51;6.85;;;4.68;;
81901;SDS011;71369;50.796;3.290;2023-10-31T03:09:16;7.00;;;4.45;;
81901;SDS011;71369;50.796;3.290;2023-10-31T03:11:42;13.32;;;5.55;;
81901;SDS011;71369;50.796;3.290;2023-10-31T03:14:08;7.68;;;5.13;;
81901;SDS011;71369;50.796;3.290;2023-10-31T03:16:33;9.70;;;5.97;;
81901;SDS011;71369;50.796;3.290;2023-10-31T03:18:59;8.32;;;5.95;;
81901;SDS011;71369;50.796;3.290;2023-10-31T03:21:25;8.05;;;5.10;;
81901;SDS011;71369;50.796;3.290;2023-10-31T03:23:51;9.68;;;6.15;;
81901;SDS011;71369;50.796;3.290;2023-10-31T03:26:20;10.27;;;6.10;;
81901;SDS011;71369;50.796;3.290;2023-10-31T03:28:46;13.13;;;6.97;;
81901;SDS011;71369;50.796;3.290;2023-10-31T03:31:13;8.85;;;5.75;;
81901;SDS011;71369;50.796;3.290;2023-10-31T03:33:39;10.73;;;7.00;;
81901;SDS011;71369;50.796;3.290;2023-10-31T03:36:05;13.40;;;6.80;;
81901;SDS011;71369;50.796;3.290;2023-10-31T03:38:32;10.05;;;6.28;;
81901;SDS011;71369;50.796;3.290;2023-10-31T03:40:58;10.10;;;6.63;;
81901;SDS011;71369;50.796;3.290;2023-10-31T03:43:24;11.18;;;6.90;;
81901;SDS011;71369;50.796;3.290;2023-10-31T03:45:51;10.95;;;7.38;;
81901;SDS011;71369;50.796;3.290;2023-10-31T03:48:17;12.60;;;7.47;;
81901;SDS011;71369;50.796;3.290;2023-10-31T03:50:43;13.68;;;7.50;;
81901;SDS011;71369;50.796;3.290;2023-10-31T03:53:09;15.80;;;7.53;;
81901;SDS011;71369;50.796;3.290;2023-10-31T03:55:34;13.77;;;8.57;;
81901;SDS011;71369;50.796;3.290;2023-10-31T03:58:01;13.60;;;8.27;;
81901;SDS011;71369;50.796;3.290;2023-10-31T04:00:27;12.85;;;8.18;;
81901;SDS011;71369;50.796;3.290;2023-10-31T04:02:53;12.35;;;7.80;;
81901;SDS011;71369;50.796;3.290;2023-10-31T04:05:18;10.15;;;6.95;;
81901;SDS011;71369;50.796;3.290;2023-10-31T04:07:47;12.70;;;7.00;;
81901;SDS011;71369;50.796;3.290;2023-10-31T04:10:13;13.80;;;8.30;;
81901;SDS011;71369;50.796;3.290;2023-10-31T04:12:40;13.05;;;8.07;;
81901;SDS011;71369;50.796;3.290;2023-10-31T04:15:06;14.60;;;8.38;;
81901;SDS011;71369;50.796;3.290;2023-10-31T04:17:33;15.32;;;8.15;;
81901;SDS011;71369;50.796;3.290;2023-10-31T04:19:58;13.95;;;8.50;;
81901;SDS011;71369;50.796;3.290;2023-10-31T04:22:24;14.10;;;8.27;;
81901;SDS011;71369;50.796;3.290;2023-10-31T04:24:50;13.52;;;8.13;;
81901;SDS011;71369;50.796;3.290;2023-10-31T04:27:16;16.20;;;9.85;;
81901;SDS011;71369;50.796;3.290;2023-10-31T04:29:41;16.42;;;9.32;;
81901;SDS011;71369;50.796;3.290;2023-10-31T04:32:07;14.90;;;9.48;;
81901;SDS011;71369;50.796;3.290;2023-10-31T04:34:33;14.80;;;9.15;;
81901;SDS011;71369;50.796;3.290;2023-10-31T04:36:58;14.75;;;8.90;;
81901;SDS011;71369;50.796;3.290;2023-10-31T04:39:24;15.30;;;9.60;;
81901;SDS011;71369;50.796;3.290;2023-10-31T04:41:50;13.82;;;8.90;;
81901;SDS011;71369;50.796;3.290;2023-10-31T04:44:15;14.05;;;9.18;;
81901;SDS011;71369;50.796;3.290;2023-10-31T04:46:42;14.93;;;9.60;;
81901;SDS011;71369;50.796;3.290;2023-10-31T04:49:08;20.20;;;10.77;;
81901;SDS011;71369;50.796;3.290;2023-10-31T04:51:37;15.55;;;9.98;;
81901;SDS011;71369;50.796;3.290;2023-10-31T04:54:03;15.65;;;9.88;;
81901;SDS011;71369;50.796;3.290;2023-10-31T04:56:29;15.85;;;9.90;;
81901;SDS011;71369;50.796;3.290;2023-10-31T04:58:55;17.52;;;10.25;;
81901;SDS011;71369;50.796;3.290;2023-10-31T05:01:21;16.60;;;10.07;;
81901;SDS011;71369;50.796;3.290;2023-10-31T05:03:47;19.33;;;11.60;;
81901;SDS011;71369;50.796;3.290;2023-10-31T05:06:13;17.48;;;10.55;;
81901;SDS011;71369;50.796;3.290;2023-10-31T05:08:38;18.60;;;9.90;;
81901;SDS011;71369;50.796;3.290;2023-10-31T05:11:04;21.30;;;10.63;;
81901;SDS011;71369;50.796;3.290;2023-10-31T05:13:30;15.82;;;10.10;;
81901;SDS011;71369;50.796;3.290;2023-10-31T05:15:55;15.48;;;9.70;;
81901;SDS011;71369;50.796;3.290;2023-10-31T05:18:21;15.60;;;10.15;;
81901;SDS011;71369;50.796;3.290;2023-10-31T05:20:47;15.52;;;10.05;;
81901;SDS011;71369;50.796;3.290;2023-10-31T05:23:13;17.75;;;10.05;;
81901;SDS011;71369;50.796;3.290;2023-10-31T05:25:39;22.40;;;10.48;;
81901;SDS011;71369;50.796;3.290;2023-10-31T05:28:05;15.25;;;9.55;;
81901;SDS011;71369;50.796;3.290;2023-10-31T05:30:30;16.15;;;9.63;;
81901;SDS011;71369;50.796;3.290;2023-10-31T05:32:56;16.90;;;9.90;;
81901;SDS011;71369;50.796;3.290;2023-10-31T05:35:22;16.10;;;8.88;;
81901;SDS011;71369;50.796;3.290;2023-10-31T05:37:48;20.67;;;10.15;;
81901;SDS011;71369;50.796;3.290;2023-10-31T05:40:14;17.33;;;10.57;;
81901;SDS011;71369;50.796;3.290;2023-10-31T05:42:41;20.55;;;9.98;;
81901;SDS011;71369;50.796;3.290;2023-10-31T05:45:08;19.88;;;9.95;;
81901;SDS011;71369;50.796;3.290;2023-10-31T05:47:34;15.98;;;10.93;;
81901;SDS011;71369;50.796;3.290;2023-10-31T05:49:59;17.48;;;10.75;;
81901;SDS011;71369;50.796;3.290;2023-10-31T05:52:28;16.63;;;10.88;;
81901;SDS011;71369;50.796;3.290;2023-10-31T05:54:55;21.42;;;11.80;;
81901;SDS011;71369;50.796;3.290;2023-10-31T05:57:21;18.25;;;10.80;;
81901;SDS011;71369;50.796;3.290;2023-10-31T05:59:47;17.77;;;11.20;;
81901;SDS011;71369;50.796;3.290;2023-10-31T06:02:13;19.40;;;11.43;;
81901;SDS011;71369;50.796;3.290;2023-10-31T06:04:39;23.15;;;13.00;;
81901;SDS011;71369;50.796;3.290;2023-10-31T06:07:06;24.80;;;12.80;;
81901;SDS011;71369;50.796;3.290;2023-10-31T06:09:33;19.17;;;11.80;;
81901;SDS011;71369;50.796;3.290;2023-10-31T06:11:59;21.70;;;11.40;;
81901;SDS011;71369;50.796;3.290;2023-10-31T06:14:25;18.67;;;11.20;;
81901;SDS011;71369;50.796;3.290;2023-10-31T06:16:51;20.55;;;12.23;;
81901;SDS011;71369;50.796;3.290;2023-10-31T06:19:17;21.58;;;12.20;;
81901;SDS011;71369;50.796;3.290;2023-10-31T06:21:43;19.25;;;11.43;;
81901;SDS011;71369;50.796;3.290;2023-10-31T06:24:09;19.92;;;12.10;;
81901;SDS011;71369;50.796;3.290;2023-10-31T06:26:34;19.80;;;10.90;;
81901;SDS011;71369;50.796;3.290;2023-10-31T06:29:00;21.92;;;11.23;;
81901;SDS011;71369;50.796;3.290;2023-10-31T06:31:26;20.75;;;11.23;;
81901;SDS011;71369;50.796;3.290;2023-10-31T06:33:52;21.88;;;12.65;;
81901;SDS011;71369;50.796;3.290;2023-10-31T06:36:17;23.48;;;11.85;;
81901;SDS011;71369;50.796;3.290;2023-10-31T06:38:43;19.35;;;11.15;;
81901;SDS011;71369;50.796;3.290;2023-10-31T06:41:09;22.25;;;11.23;;
81901;SDS011;71369;50.796;3.290;2023-10-31T06:43:35;23.42;;;11.15;;
81901;SDS011;71369;50.796;3.290;2023-10-31T06:46:00;17.98;;;9.63;;
81901;SDS011;71369;50.796;3.290;2023-10-31T06:48:29;17.55;;;10.15;;
81901;SDS011;71369;50.796;3.290;2023-10-31T06:50:55;16.02;;;10.88;;
81901;SDS011;71369;50.796;3.290;2023-10-31T06:53:20;22.52;;;10.75;;
81901;SDS011;71369;50.796;3.290;2023-10-31T06:55:46;16.38;;;10.80;;
81901;SDS011;71369;50.796;3.290;2023-10-31T06:58:12;19.83;;;11.90;;
81901;SDS011;71369;50.796;3.290;2023-10-31T07:00:37;18.83;;;11.38;;
81901;SDS011;71369;50.796;3.290;2023-10-31T07:03:04;19.33;;;11.57;;
81901;SDS011;71369;50.796;3.290;2023-10-31T07:05:34;22.13;;;12.38;;
81901;SDS011;71369;50.796;3.290;2023-10-31T07:08:01;22.40;;;11.93;;
81901;SDS011;71369;50.796;3.290;2023-10-31T07:10:28;21.17;;;12.27;;
81901;SDS011;71369;50.796;3.290;2023-10-31T07:12:55;26.30;;;12.20;;
81901;SDS011;71369;50.796;3.290;2023-10-31T07:15:23;18.23;;;11.43;;
81901;SDS011;71369;50.796;3.290;2023-10-31T07:17:49;17.95;;;10.93;;
81901;SDS011;71369;50.796;3.290;2023-10-31T07:20:15;20.70;;;13.38;;
81901;SDS011;71369;50.796;3.290;2023-10-31T07:22:41;19.77;;;11.70;;
81901;SDS011;71369;50.796;3.290;2023-10-31T07:25:06;21.75;;;10.85;;
81901;SDS011;71369;50.796;3.290;2023-10-31T07:27:32;18.98;;;11.18;;
81901;SDS011;71369;50.796;3.290;2023-10-31T07:29:58;19.08;;;11.07;;
81901;SDS011;71369;50.796;3.290;2023-10-31T07:32:24;23.35;;;12.68;;
81901;SDS011;71369;50.796;3.290;2023-10-31T07:34:51;25.33;;;12.85;;
81901;SDS011;71369;50.796;3.290;2023-10-31T07:37:17;17.55;;;11.30;;
81901;SDS011;71369;50.796;3.290;2023-10-31T07:39:43;20.85;;;12.68;;
81901;SDS011;71369;50.796;3.290;2023-10-31T07:42:09;21.38;;;12.43;;
81901;SDS011;71369;50.796;3.290;2023-10-31T07:44:35;24.52;;;13.82;;
81901;SDS011;71369;50.796;3.290;2023-10-31T07:47:01;41.42;;;14.10;;
81901;SDS011;71369;50.796;3.290;2023-10-31T07:49:27;24.70;;;13.73;;
81901;SDS011;71369;50.796;3.290;2023-10-31T07:51:52;22.35;;;12.90;;
81901;SDS011;71369;50.796;3.290;2023-10-31T07:54:19;26.30;;;14.63;;
81901;SDS011;71369;50.796;3.290;2023-10-31T07:56:45;22.55;;;12.88;;
81901;SDS011;71369;50.796;3.290;2023-10-31T07:59:11;22.58;;;13.70;;
81901;SDS011;71369;50.796;3.290;2023-10-31T08:01:37;24.35;;;14.63;;
81901;SDS011;71369;50.796;3.290;2023-10-31T08:04:02;23.90;;;14.65;;
81901;SDS011;71369;50.796;3.290;2023-10-31T08:06:28;24.80;;;13.90;;
81901;SDS011;71369;50.796;3.290;2023-10-31T08:08:54;26.83;;;13.10;;
81901;SDS011;71369;50.796;3.290;2023-10-31T08:11:20;24.83;;;13.52;;
81901;SDS011;71369;50.796;3.290;2023-10-31T08:13:45;25.98;;;14.80;;
81901;SDS011;71369;50.796;3.290;2023-10-31T08:16:16;25.48;;;14.43;;
81901;SDS011;71369;50.796;3.290;2023-10-31T08:18:43;30.55;;;15.07;;
81901;SDS011;71369;50.796;3.290;2023-10-31T08:21:09;24.17;;;15.00;;
81901;SDS011;71369;50.796;3.290;2023-10-31T08:23:36;23.60;;;13.80;;
81901;SDS011;71369;50.796;3.290;2023-10-31T08:26:02;25.85;;;14.82;;
81901;SDS011;71369;50.796;3.290;2023-10-31T08:28:28;24.45;;;14.02;;
81901;SDS011;71369;50.796;3.290;2023-10-31T08:30:54;27.10;;;14.45;;
81901;SDS011;71369;50.796;3.290;2023-10-31T08:33:22;25.58;;;14.60;;
81901;SDS011;71369;50.796;3.290;2023-10-31T08:35:48;23.63;;;14.27;;
81901;SDS011;71369;50.796;3.290;2023-10-31T08:38:14;24.73;;;14.20;;
81901;SDS011;71369;50.796;3.290;2023-10-31T08:40:40;26.27;;;14.20;;
81901;SDS011;71369;50.796;3.290;2023-10-31T08:43:06;30.40;;;13.55;;
81901;SDS011;71369;50.796;3.290;2023-10-31T08:45:32;23.00;;;13.18;;
81901;SDS011;71369;50.796;3.290;2023-10-31T08:47:59;27.27;;;13.60;;
81901;SDS011;71369;50.796;3.290;2023-10-31T08:50:25;22.73;;;12.98;;
81901;SDS011;71369;50.796;3.290;2023-10-31T08:52:51;21.27;;;11.93;;
81901;SDS011;71369;50.796;3.290;2023-10-31T08:55:16;20.35;;;11.35;;
81901;SDS011;71369;50.796;3.290;2023-10-31T08:57:42;14.93;;;10.02;;
81901;SDS011;71369;50.796;3.290;2023-10-31T09:00:08;19.45;;;10.00;;
81901;SDS011;71369;50.796;3.290;2023-10-31T09:02:34;13.45;;;8.57;;
81901;SDS011;71369;50.796;3.290;2023-10-31T09:05:00;15.93;;;9.10;;
81901;SDS011;71369;50.796;3.290;2023-10-31T09:07:25;13.40;;;8.50;;
81901;SDS011;71369;50.796;3.290;2023-10-31T09:09:52;13.98;;;8.43;;
81901;SDS011;71369;50.796;3.290;2023-10-31T09:12:18;14.63;;;8.23;;
81901;SDS011;71369;50.796;3.290;2023-10-31T09:14:43;15.80;;;7.57;;
81901;SDS011;71369;50.796;3.290;2023-10-31T09:17:10;10.80;;;6.72;;
81901;SDS011;71369;50.796;3.290;2023-10-31T09:19:36;10.23;;;6.65;;
81901;SDS011;71369;50.796;3.290;2023-10-31T09:22:02;14.30;;;7.30;;
81901;SDS011;71369;50.796;3.290;2023-10-31T09:24:27;14.95;;;7.03;;
81901;SDS011;71369;50.796;3.290;2023-10-31T09:26:53;10.90;;;6.63;;
81901;SDS011;71369;50.796;3.290;2023-10-31T09:29:21;12.27;;;6.63;;
81901;SDS011;71369;50.796;3.290;2023-10-31T09:31:46;11.10;;;6.32;;
81901;SDS011;71369;50.796;3.290;2023-10-31T09:34:12;13.13;;;7.70;;
81901;SDS011;71369;50.796;3.290;2023-10-31T09:36:39;10.98;;;6.80;;
81901;SDS011;71369;50.796;3.290;2023-10-31T09:39:05;13.93;;;7.22;;
81901;SDS011;71369;50.796;3.290;2023-10-31T09:41:31;14.30;;;7.93;;
81901;SDS011;71369;50.796;3.290;2023-10-31T09:44:01;12.50;;;7.55;;
81901;SDS011;71369;50.796;3.290;2023-10-31T09:46:28;9.95;;;6.68;;
81901;SDS011;71369;50.796;3.290;2023-10-31T09:48:54;14.77;;;7.82;;
81901;SDS011;71369;50.796;3.290;2023-10-31T09:51:21;15.50;;;8.40;;
81901;SDS011;71369;50.796;3.290;2023-10-31T09:53:47;15.18;;;8.05;;
81901;SDS011;71369;50.796;3.290;2023-10-31T09:56:13;12.85;;;7.05;;
81901;SDS011;71369;50.796;3.290;2023-10-31T09:58:40;13.27;;;6.97;;
81901;SDS011;71369;50.796;3.290;2023-10-31T10:01:06;12.48;;;7.50;;
81901;SDS011;71369;50.796;3.290;2023-10-31T10:03:32;15.65;;;7.65;;
81901;SDS011;71369;50.796;3.290;2023-10-31T10:05:58;15.48;;;7.78;;
81901;SDS011;71369;50.796;3.290;2023-10-31T10:08:24;15.80;;;7.95;;
81901;SDS011;71369;50.796;3.290;2023-10-31T10:10:50;11.40;;;7.07;;
81901;SDS011;71369;50.796;3.290;2023-10-31T10:13:22;13.40;;;7.35;;
81901;SDS011;71369;50.796;3.290;2023-10-31T10:15:49;17.20;;;8.15;;
81901;SDS011;71369;50.796;3.290;2023-10-31T10:18:29;12.95;;;7.90;;
81901;SDS011;71369;50.796;3.290;2023-10-31T10:21:00;13.73;;;7.43;;
81901;SDS011;71369;50.796;3.290;2023-10-31T10:23:28;16.52;;;8.15;;
81901;SDS011;71369;50.796;3.290;2023-10-31T10:25:55;17.17;;;8.18;;
81901;SDS011;71369;50.796;3.290;2023-10-31T10:28:23;16.65;;;8.15;;
81901;SDS011;71369;50.796;3.290;2023-10-31T10:30:54;15.60;;;8.10;;
81901;SDS011;71369;50.796;3.290;2023-10-31T10:33:20;16.00;;;7.97;;
81901;SDS011;71369;50.796;3.290;2023-10-31T10:35:49;15.93;;;8.60;;
81901;SDS011;71369;50.796;3.290;2023-10-31T10:38:15;13.90;;;8.55;;
81901;SDS011;71369;50.796;3.290;2023-10-31T10:40:47;15.02;;;8.80;;
81901;SDS011;71369;50.796;3.290;2023-10-31T10:45:54;11.43;;;7.70;;
81901;SDS011;71369;50.796;3.290;2023-10-31T10:48:21;11.43;;;7.50;;
81901;SDS011;71369;50.796;3.290;2023-10-31T10:50:59;12.35;;;7.78;;
81901;SDS011;71369;50.796;3.290;2023-10-31T10:53:48;14.57;;;8.57;;
81901;SDS011;71369;50.796;3.290;2023-10-31T10:56:53;11.43;;;7.47;;
81901;SDS011;71369;50.796;3.290;2023-10-31T10:59:30;12.75;;;8.35;;
81901;SDS011;71369;50.796;3.290;2023-10-31T11:02:05;14.57;;;8.45;;
81901;SDS011;71369;50.796;3.290;2023-10-31T11:04:33;11.77;;;7.55;;
81901;SDS011;71369;50.796;3.290;2023-10-31T11:06:59;15.88;;;8.05;;
81901;SDS011;71369;50.796;3.290;2023-10-31T11:09:26;13.25;;;8.88;;
81901;SDS011;71369;50.796;3.290;2023-10-31T11:11:53;14.68;;;8.52;;
81901;SDS011;71369;50.796;3.290;2023-10-31T11:14:19;13.82;;;8.15;;
81901;SDS011;71369;50.796;3.290;2023-10-31T11:16:47;10.30;;;7.15;;
81901;SDS011;71369;50.796;3.290;2023-10-31T11:19:17;12.35;;;7.50;;
81901;SDS011;71369;50.796;3.290;2023-10-31T11:21:53;11.93;;;6.65;;
81901;SDS011;71369;50.796;3.290;2023-10-31T11:24:22;14.07;;;6.20;;
81901;SDS011;71369;50.796;3.290;2023-10-31T11:26:53;13.15;;;6.90;;
81901;SDS011;71369;50.796;3.290;2023-10-31T11:29:25;10.77;;;6.20;;
81901;SDS011;71369;50.796;3.290;2023-10-31T11:31:51;9.48;;;5.93;;
81901;SDS011;71369;50.796;3.290;2023-10-31T11:34:21;9.55;;;5.75;;
81901;SDS011;71369;50.796;3.290;2023-10-31T11:36:47;6.82;;;4.63;;
81901;SDS011;71369;50.796;3.290;2023-10-31T11:39:15;10.25;;;5.10;;
81901;SDS011;71369;50.796;3.290;2023-10-31T11:41:49;8.05;;;4.50;;
81901;SDS011;71369;50.796;3.290;2023-10-31T11:44:18;7.03;;;4.38;;
81901;SDS011;71369;50.796;3.290;2023-10-31T11:46:49;9.18;;;4.53;;
81901;SDS011;71369;50.796;3.290;2023-10-31T11:49:17;8.10;;;4.38;;
81901;SDS011;71369;50.796;3.290;2023-10-31T11:52:13;8.30;;;4.47;;
81901;SDS011;71369;50.796;3.290;2023-10-31T11:54:43;6.70;;;4.47;;
81901;SDS011;71369;50.796;3.290;2023-10-31T11:57:09;8.23;;;4.63;;
81901;SDS011;71369;50.796;3.290;2023-10-31T11:59:36;8.95;;;4.22;;
81901;SDS011;71369;50.796;3.290;2023-10-31T12:02:12;6.75;;;4.03;;
81901;SDS011;71369;50.796;3.290;2023-10-31T12:04:40;6.07;;;3.78;;
81901;SDS011;71369;50.796;3.290;2023-10-31T12:07:06;5.13;;;3.88;;
81901;SDS011;71369;50.796;3.290;2023-10-31T12:09:33;5.88;;;3.45;;
81901;SDS011;71369;50.796;3.290;2023-10-31T12:12:10;5.63;;;3.55;;
81901;SDS011;71369;50.796;3.290;2023-10-31T12:14:35;5.90;;;3.58;;
81901;SDS011;71369;50.796;3.290;2023-10-31T12:17:04;7.53;;;3.85;;
81901;SDS011;71369;50.796;3.290;2023-10-31T12:19:32;6.57;;;3.80;;
81901;SDS011;71369;50.796;3.290;2023-10-31T12:21:58;7.00;;;3.45;;
81901;SDS011;71369;50.796;3.290;2023-10-31T12:24:24;6.35;;;3.92;;
81901;SDS011;71369;50.796;3.290;2023-10-31T12:26:49;5.20;;;3.20;;
81901;SDS011;71369;50.796;3.290;2023-10-31T12:29:17;4.32;;;3.42;;
81901;SDS011;71369;50.796;3.290;2023-10-31T12:31:51;8.07;;;3.35;;
81901;SDS011;71369;50.796;3.290;2023-10-31T12:34:18;6.57;;;3.67;;
81901;SDS011;71369;50.796;3.290;2023-10-31T12:36:46;6.32;;;3.92;;
81901;SDS011;71369;50.796;3.290;2023-10-31T12:39:13;5.70;;;3.92;;
81901;SDS011;71369;50.796;3.290;2023-10-31T12:41:40;4.35;;;3.50;;
81901;SDS011;71369;50.796;3.290;2023-10-31T12:44:08;6.75;;;4.03;;
81901;SDS011;71369;50.796;3.290;2023-10-31T12:46:38;6.05;;;3.35;;
81901;SDS011;71369;50.796;3.290;2023-10-31T12:49:10;6.72;;;3.65;;
81901;SDS011;71369;50.796;3.290;2023-10-31T12:51:54;7.30;;;3.70;;
81901;SDS011;71369;50.796;3.290;2023-10-31T12:54:30;5.80;;;3.15;;
81901;SDS011;71369;50.796;3.290;2023-10-31T12:57:02;7.05;;;2.75;;
81901;SDS011;71369;50.796;3.290;2023-10-31T12:59:32;7.28;;;3.28;;
81901;SDS011;71369;50.796;3.290;2023-10-31T13:04:31;6.05;;;2.72;;
81901;SDS011;71369;50.796;3.290;2023-10-31T13:07:01;5.10;;;2.95;;
81901;SDS011;71369;50.796;3.290;2023-10-31T13:09:32;5.47;;;2.75;;
81901;SDS011;71369;50.796;3.290;2023-10-31T13:14:27;6.93;;;2.92;;
81901;SDS011;71369;50.796;3.290;2023-10-31T13:16:53;8.73;;;3.72;;
81901;SDS011;71369;50.796;3.290;2023-10-31T13:19:18;6.97;;;3.20;;
81901;SDS011;71369;50.796;3.290;2023-10-31T13:21:44;5.85;;;3.28;;
81901;SDS011;71369;50.796;3.290;2023-10-31T13:24:10;7.15;;;3.40;;
81901;SDS011;71369;50.796;3.290;2023-10-31T13:26:36;10.98;;;3.83;;
81901;SDS011;71369;50.796;3.290;2023-10-31T13:29:01;5.10;;;3.50;;
81901;SDS011;71369;50.796;3.290;2023-10-31T13:31:27;8.02;;;3.97;;
81901;SDS011;71369;50.796;3.290;2023-10-31T13:33:53;4.93;;;3.22;;
81901;SDS011;71369;50.796;3.290;2023-10-31T13:36:18;6.75;;;3.40;;
81901;SDS011;71369;50.796;3.290;2023-10-31T13:38:45;8.77;;;3.90;;
81901;SDS011;71369;50.796;3.290;2023-10-31T13:41:12;7.00;;;3.72;;
81901;SDS011;71369;50.796;3.290;2023-10-31T13:43:37;7.60;;;3.97;;
81901;SDS011;71369;50.796;3.290;2023-10-31T13:46:03;9.95;;;4.13;;
81901;SDS011;71369;50.796;3.290;2023-10-31T13:48:29;7.93;;;3.83;;
81901;SDS011;71369;50.796;3.290;2023-10-31T13:50:55;7.68;;;4.00;;
81901;SDS011;71369;50.796;3.290;2023-10-31T13:53:21;10.10;;;3.92;;
81901;SDS011;71369;50.796;3.290;2023-10-31T13:55:48;7.85;;;3.80;;
81901;SDS011;71369;50.796;3.290;2023-10-31T13:58:16;6.65;;;4.10;;
81901;SDS011;71369;50.796;3.290;2023-10-31T14:00:43;10.60;;;4.53;;
81901;SDS011;71369;50.796;3.290;2023-10-31T14:03:10;9.05;;;4.47;;
81901;SDS011;71369;50.796;3.290;2023-10-31T14:05:36;10.63;;;4.45;;
81901;SDS011;71369;50.796;3.290;2023-10-31T14:08:03;12.95;;;4.70;;
81901;SDS011;71369;50.796;3.290;2023-10-31T14:10:31;9.75;;;3.80;;
81901;SDS011;71369;50.796;3.290;2023-10-31T14:13:00;6.95;;;3.80;;
81901;SDS011;71369;50.796;3.290;2023-10-31T14:15:25;12.10;;;4.30;;
81901;SDS011;71369;50.796;3.290;2023-10-31T14:17:51;7.60;;;3.63;;
81901;SDS011;71369;50.796;3.290;2023-10-31T14:20:17;8.57;;;4.00;;
81901;SDS011;71369;50.796;3.290;2023-10-31T14:22:46;9.70;;;4.18;;
81901;SDS011;71369;50.796;3.290;2023-10-31T14:25:13;8.27;;;3.83;;
81901;SDS011;71369;50.796;3.290;2023-10-31T14:27:40;9.10;;;4.53;;
81901;SDS011;71369;50.796;3.290;2023-10-31T14:30:06;11.25;;;3.97;;
81901;SDS011;71369;50.796;3.290;2023-10-31T14:32:32;10.00;;;4.32;;
81901;SDS011;71369;50.796;3.290;2023-10-31T14:34:58;11.30;;;4.38;;
81901;SDS011;71369;50.796;3.290;2023-10-31T14:37:24;8.93;;;3.72;;
81901;SDS011;71369;50.796;3.290;2023-10-31T14:39:49;11.80;;;4.70;;
81901;SDS011;71369;50.796;3.290;2023-10-31T14:42:15;12.20;;;4.40;;